Time;durP1;ratioP1;P1;durP2;ratioP2;P2;SDS_P1;SDS_P2;PMS_P1;PMS_P2;Temp;Humidity;BMP_temperature;BMP_pressure;BME280_temperature;BME280_humidity;BME280_pressure;Samples;Min_cycle;Max_cycle;Signal;HPM_P1;HPM_P2
2024/01/25 04:00:49;;;;;;;6.25;2.33;;;24.20;29.90;;;;;;5843740;23;47029;-83
2024/01/25 04:03:15;;;;;;;7.45;2.75;;;24.20;29.90;;;;;;5008627;28;46260;-82
2024/01/25 04:05:41;;;;;;;6.27;2.63;;;24.10;29.80;;;;;;4990609;28;44910;-82
2024/01/25 04:08:07;;;;;;;5.45;2.22;;;24.10;29.80;;;;;;5020238;28;45199;-84
2024/01/25 04:10:33;;;;;;;6.45;2.58;;;24.10;29.80;;;;;;5002693;28;45404;-83
2024/01/25 04:13:04;;;;;;;7.22;2.58;;;24.10;29.80;;;;;;4977620;28;46201;-82
2024/01/25 04:15:30;;;;;;;7.65;2.50;;;24.10;29.80;;;;;;4988576;28;45269;-83
2024/01/25 04:17:56;;;;;;;6.07;2.30;;;24.10;29.80;;;;;;4957420;28;45074;-83
2024/01/25 04:20:22;;;;;;;6.43;2.20;;;24.10;29.80;;;;;;4971336;28;45531;-84
2024/01/25 04:22:48;;;;;;;6.43;2.50;;;24.10;29.80;;;;;;5002298;28;46029;-83
2024/01/25 04:25:15;;;;;;;6.45;2.33;;;24.20;29.80;;;;;;4969685;28;45226;-82
2024/01/25 04:27:40;;;;;;;6.03;2.33;;;24.10;29.80;;;;;;5009903;28;45473;-82
2024/01/25 04:30:10;;;;;;;6.60;2.40;;;24.10;29.80;;;;;;4981798;28;45331;-84
2024/01/25 04:32:36;;;;;;;7.13;2.75;;;24.10;29.90;;;;;;5002384;28;45182;-83
2024/01/25 04:35:02;;;;;;;6.28;2.47;;;24.10;29.80;;;;;;5003124;28;44892;-86
2024/01/25 04:37:28;;;;;;;5.35;2.13;;;24.10;29.80;;;;;;4985054;28;45290;-83
2024/01/25 04:39:54;;;;;;;7.30;2.57;;;24.10;29.80;;;;;;5004543;28;45267;-85
2024/01/25 04:42:20;;;;;;;5.55;2.05;;;24.10;29.80;;;;;;4978953;28;46422;-85
2024/01/25 04:44:45;;;;;;;6.25;2.22;;;24.10;29.80;;;;;;4965109;28;45075;-82
2024/01/25 04:47:11;;;;;;;7.18;2.75;;;24.10;29.80;;;;;;4986211;28;45631;-85
2024/01/25 04:49:37;;;;;;;6.67;2.60;;;24.10;29.80;;;;;;4976081;28;44979;-83
2024/01/25 04:52:05;;;;;;;6.25;2.40;;;24.00;29.80;;;;;;5004677;28;46301;-82
2024/01/25 04:54:31;;;;;;;7.72;2.40;;;24.10;29.80;;;;;;5004796;28;44880;-83
2024/01/25 04:56:56;;;;;;;7.17;2.60;;;24.00;29.80;;;;;;4988475;28;44773;-84
2024/01/25 04:59:23;;;;;;;7.03;2.63;;;24.00;29.80;;;;;;4993068;28;45002;-83
2024/01/25 05:01:49;;;;;;;6.40;2.20;;;24.10;29.80;;;;;;4998838;28;46546;-84
2024/01/25 05:04:16;;;;;;;6.53;2.60;;;24.10;29.80;;;;;;4993323;28;44732;-82
2024/01/25 05:06:42;;;;;;;6.80;2.58;;;24.00;29.80;;;;;;5005004;28;45997;-82
2024/01/25 05:09:08;;;;;;;6.35;2.47;;;24.00;29.80;;;;;;4977585;28;45187;-83
2024/01/25 05:11:39;;;;;;;8.35;3.08;;;24.00;29.80;;;;;;4974465;28;46163;-83
2024/01/25 05:14:05;;;;;;;6.43;2.53;;;24.00;29.80;;;;;;4965260;28;45587;-83
2024/01/25 05:16:30;;;;;;;6.18;2.28;;;24.00;29.80;;;;;;4984291;28;45168;-83
2024/01/25 05:18:58;;;;;;;6.07;2.30;;;24.00;29.80;;;;;;4978987;28;44835;-83
2024/01/25 05:21:24;;;;;;;5.88;2.50;;;24.00;29.80;;;;;;4992141;28;46434;-83
2024/01/25 05:23:49;;;;;;;7.30;2.33;;;23.90;29.80;;;;;;5004303;28;45319;-83
2024/01/25 05:26:16;;;;;;;6.77;2.43;;;24.00;29.80;;;;;;4992333;28;45116;-82
2024/01/25 05:28:43;;;;;;;6.40;2.53;;;24.00;29.80;;;;;;5009015;28;45096;-83
2024/01/25 05:31:12;;;;;;;6.67;2.40;;;24.00;29.80;;;;;;5017059;28;46270;-83
2024/01/25 05:33:41;;;;;;;6.53;2.55;;;24.00;29.80;;;;;;4974351;28;45041;-82
2024/01/25 05:36:08;;;;;;;7.25;2.50;;;24.00;29.80;;;;;;4973572;28;45614;-82
2024/01/25 05:38:34;;;;;;;7.03;2.70;;;24.00;29.80;;;;;;4988398;28;45517;-82
2024/01/25 05:40:59;;;;;;;6.50;2.65;;;23.90;29.80;;;;;;4986120;28;46426;-82
2024/01/25 05:43:25;;;;;;;6.43;2.47;;;23.90;29.80;;;;;;4980772;28;45057;-82
2024/01/25 05:45:52;;;;;;;6.97;2.50;;;24.00;29.80;;;;;;5001633;28;44823;-83
2024/01/25 05:48:17;;;;;;;6.55;2.40;;;23.90;29.80;;;;;;5003475;28;44768;-83
2024/01/25 05:50:44;;;;;;;7.22;2.80;;;24.00;29.80;;;;;;4988515;28;47300;-83
2024/01/25 05:53:09;;;;;;;6.63;2.70;;;24.00;29.80;;;;;;4985927;28;45136;-82
2024/01/25 05:55:35;;;;;;;6.65;2.13;;;24.00;29.80;;;;;;4975000;28;45371;-82
2024/01/25 05:58:02;;;;;;;5.93;2.30;;;24.00;29.80;;;;;;4993334;28;45284;-83
2024/01/25 06:00:28;;;;;;;6.30;2.60;;;24.00;29.80;;;;;;4998696;28;45493;-84
2024/01/25 06:02:54;;;;;;;5.68;2.38;;;24.00;29.80;;;;;;4973668;28;45390;-83
2024/01/25 06:05:20;;;;;;;7.15;2.65;;;24.00;29.80;;;;;;4982727;28;45277;-83
2024/01/25 06:07:48;;;;;;;6.30;2.72;;;24.00;29.80;;;;;;5001114;28;45263;-82
2024/01/25 06:10:14;;;;;;;4.80;2.20;;;23.90;29.70;;;;;;4988672;28;46074;-82
2024/01/25 06:12:40;;;;;;;6.57;2.50;;;24.00;29.80;;;;;;4983998;28;44993;-83
2024/01/25 06:15:09;;;;;;;8.30;2.78;;;24.00;29.80;;;;;;5005182;28;45351;-83
2024/01/25 06:17:35;;;;;;;7.72;2.75;;;24.00;29.80;;;;;;4992725;28;45865;-82
2024/01/25 06:20:02;;;;;;;5.50;2.50;;;23.90;29.70;;;;;;5001942;28;45415;-83
2024/01/25 06:22:28;;;;;;;6.95;2.78;;;23.90;29.70;;;;;;4985675;28;44993;-83
2024/01/25 06:24:54;;;;;;;5.20;2.30;;;23.90;29.70;;;;;;4987874;28;45016;-83
2024/01/25 06:27:20;;;;;;;7.13;2.85;;;23.90;29.70;;;;;;4969348;28;45813;-82
2024/01/25 06:29:47;;;;;;;5.97;2.63;;;23.90;29.80;;;;;;4989599;28;45939;-82
2024/01/25 06:32:13;;;;;;;5.28;2.30;;;24.00;29.80;;;;;;5000024;28;45234;-83
2024/01/25 06:34:39;;;;;;;6.05;2.63;;;23.90;29.70;;;;;;4997119;28;45230;-84
2024/01/25 06:37:06;;;;;;;6.85;2.60;;;23.80;29.70;;;;;;5001961;28;44950;-82
2024/01/25 06:39:32;;;;;;;6.60;2.53;;;24.00;29.80;;;;;;4973664;28;46746;-83
2024/01/25 06:41:58;;;;;;;5.95;2.28;;;23.90;29.70;;;;;;5005319;28;45353;-82
2024/01/25 06:44:23;;;;;;;6.53;2.42;;;23.90;29.70;;;;;;4989455;28;45982;-84
2024/01/25 06:46:49;;;;;;;5.63;2.33;;;23.90;29.70;;;;;;4993394;28;44766;-84
2024/01/25 06:49:15;;;;;;;7.57;2.70;;;23.90;29.70;;;;;;4989659;28;45960;-82
2024/01/25 06:51:41;;;;;;;6.27;2.50;;;23.90;29.70;;;;;;4989923;28;44721;-82
2024/01/25 06:54:07;;;;;;;5.50;2.40;;;23.90;29.80;;;;;;4995253;28;45323;-82
2024/01/25 06:56:34;;;;;;;7.05;2.75;;;23.90;29.70;;;;;;4991881;28;45175;-84
2024/01/25 06:59:00;;;;;;;7.10;2.58;;;23.90;29.80;;;;;;4978148;28;46219;-82
2024/01/25 07:01:27;;;;;;;6.47;2.90;;;23.80;29.70;;;;;;4982121;28;45436;-83
2024/01/25 07:03:53;;;;;;;5.18;2.33;;;23.80;29.70;;;;;;4977514;28;45504;-85
2024/01/25 07:06:19;;;;;;;7.05;2.35;;;23.80;29.70;;;;;;4985923;28;45690;-82
2024/01/25 07:08:45;;;;;;;7.78;2.70;;;23.80;29.70;;;;;;4986946;28;45402;-82
2024/01/25 07:11:11;;;;;;;7.20;2.70;;;23.80;29.70;;;;;;4970424;28;45113;-82
2024/01/25 07:13:37;;;;;;;6.40;2.78;;;23.80;29.70;;;;;;4971316;28;46033;-82
2024/01/25 07:16:04;;;;;;;6.25;2.60;;;23.80;29.70;;;;;;4979836;28;45761;-82
2024/01/25 07:18:30;;;;;;;6.70;2.67;;;23.80;29.80;;;;;;4984338;28;46497;-83
2024/01/25 07:20:56;;;;;;;8.15;2.90;;;23.80;29.80;;;;;;4996765;28;44695;-82
2024/01/25 07:23:22;;;;;;;7.50;2.90;;;23.80;29.70;;;;;;4989044;28;45556;-83
2024/01/25 07:25:48;;;;;;;6.78;2.97;;;23.80;29.70;;;;;;4971676;28;45574;-83
2024/01/25 07:28:14;;;;;;;5.97;3.05;;;23.80;29.80;;;;;;5007318;28;45432;-82
2024/01/25 07:30:40;;;;;;;6.40;2.80;;;23.70;29.70;;;;;;4999445;28;45041;-85
2024/01/25 07:33:06;;;;;;;7.88;2.78;;;23.80;29.80;;;;;;4984194;28;44979;-83
2024/01/25 07:35:32;;;;;;;7.20;2.73;;;23.70;29.70;;;;;;4977756;28;44919;-83
2024/01/25 07:37:58;;;;;;;6.60;2.72;;;23.80;29.80;;;;;;4974914;28;46357;-83
2024/01/25 07:40:26;;;;;;;7.82;2.95;;;23.80;29.70;;;;;;5005647;28;45073;-83
2024/01/25 07:42:51;;;;;;;8.18;2.95;;;23.70;29.70;;;;;;4989292;28;45091;-83
2024/01/25 07:45:18;;;;;;;6.20;2.63;;;23.70;29.70;;;;;;4986092;28;45125;-83
2024/01/25 07:47:44;;;;;;;8.40;2.83;;;23.70;29.70;;;;;;5007831;28;46067;-84
2024/01/25 07:50:10;;;;;;;8.88;3.13;;;23.70;29.70;;;;;;5003701;28;44613;-82
2024/01/25 07:52:35;;;;;;;6.73;2.70;;;23.70;29.70;;;;;;5006640;28;45006;-82
2024/01/25 07:55:02;;;;;;;7.37;2.73;;;23.70;29.70;;;;;;4967572;28;45862;-82
2024/01/25 07:57:28;;;;;;;8.63;2.80;;;23.70;29.70;;;;;;4972673;28;48325;-82
2024/01/25 07:59:54;;;;;;;7.35;2.78;;;23.70;29.80;;;;;;5001213;28;44918;-84
2024/01/25 08:02:20;;;;;;;7.18;2.75;;;23.70;29.70;;;;;;4978149;28;44966;-83
2024/01/25 08:04:46;;;;;;;6.13;2.50;;;23.70;29.70;;;;;;4986322;28;45547;-83
2024/01/25 08:07:12;;;;;;;6.57;2.67;;;23.70;29.70;;;;;;5019349;28;46129;-82
2024/01/25 08:09:38;;;;;;;7.70;2.90;;;23.60;29.70;;;;;;4974505;28;44924;-83
2024/01/25 08:12:06;;;;;;;7.60;2.75;;;23.70;29.70;;;;;;4989258;28;44791;-83
2024/01/25 08:14:32;;;;;;;7.75;2.72;;;23.60;29.70;;;;;;5007697;28;45013;-82
2024/01/25 08:16:57;;;;;;;7.05;3.00;;;23.70;29.70;;;;;;4984973;28;46154;-82
2024/01/25 08:19:26;;;;;;;8.30;2.70;;;23.60;29.70;;;;;;4990230;28;45307;-82
2024/01/25 08:21:52;;;;;;;7.03;2.85;;;23.60;29.70;;;;;;4991855;28;45139;-83
2024/01/25 08:24:18;;;;;;;5.67;2.30;;;23.60;29.70;;;;;;4972657;28;45009;-84
2024/01/25 08:26:44;;;;;;;6.70;2.90;;;23.60;29.80;;;;;;4977008;28;45871;-82
2024/01/25 08:29:10;;;;;;;6.67;2.60;;;23.60;29.70;;;;;;4990483;28;45055;-83
2024/01/25 08:31:36;;;;;;;5.95;2.55;;;23.60;29.80;;;;;;4968488;28;45094;-82
2024/01/25 08:34:02;;;;;;;7.37;2.73;;;23.60;29.80;;;;;;4965449;28;45906;-83
2024/01/25 08:36:28;;;;;;;6.68;2.70;;;23.60;29.80;;;;;;4988731;28;45509;-83
2024/01/25 08:38:54;;;;;;;7.00;2.80;;;23.50;29.70;;;;;;4996437;28;44766;-84
2024/01/25 08:41:20;;;;;;;8.07;2.90;;;23.60;29.80;;;;;;5008868;28;45282;-82
2024/01/25 08:43:46;;;;;;;8.50;3.13;;;23.50;29.70;;;;;;5005459;28;44734;-83
2024/01/25 08:46:14;;;;;;;6.38;2.75;;;23.50;29.70;;;;;;4973389;28;46403;-82
2024/01/25 08:48:40;;;;;;;6.75;2.92;;;23.50;29.80;;;;;;4962119;28;45160;-83
2024/01/25 08:51:05;;;;;;;9.23;3.00;;;23.50;29.80;;;;;;4993817;28;44989;-82
2024/01/25 08:53:32;;;;;;;7.50;3.00;;;23.50;29.70;;;;;;4992396;28;44985;-82
2024/01/25 08:56:01;;;;;;;7.03;2.35;;;23.50;29.70;;;;;;4991035;28;45144;-83
2024/01/25 08:58:27;;;;;;;7.70;2.90;;;23.50;29.70;;;;;;5011028;28;45020;-83
2024/01/25 09:00:52;;;;;;;7.53;2.92;;;23.50;29.70;;;;;;4970880;28;45087;-83
2024/01/25 09:03:18;;;;;;;6.65;2.55;;;23.50;29.70;;;;;;4989371;28;45958;-82
2024/01/25 09:05:44;;;;;;;7.33;3.20;;;23.50;29.70;;;;;;4990031;28;45948;-82
2024/01/25 09:08:14;;;;;;;7.57;3.05;;;23.50;29.80;;;;;;4991909;28;44678;-83
2024/01/25 09:10:40;;;;;;;7.60;2.95;;;23.50;29.80;;;;;;4985492;28;45782;-83
2024/01/25 09:13:06;;;;;;;6.87;2.60;;;23.50;29.80;;;;;;4968690;28;44820;-82
2024/01/25 09:15:32;;;;;;;6.90;3.00;;;23.50;29.80;;;;;;4986348;28;45982;-84
2024/01/25 09:17:57;;;;;;;7.63;2.90;;;23.50;29.80;;;;;;4999253;28;45027;-83
2024/01/25 09:20:23;;;;;;;8.25;2.72;;;23.40;29.80;;;;;;4988103;28;44953;-83
2024/01/25 09:22:50;;;;;;;6.00;2.67;;;23.50;29.80;;;;;;4980957;28;45658;-83
2024/01/25 09:25:16;;;;;;;8.50;2.88;;;23.40;29.80;;;;;;5002155;28;45812;-82
2024/01/25 09:27:42;;;;;;;7.43;2.70;;;23.40;29.80;;;;;;4991868;28;44950;-83
2024/01/25 09:30:08;;;;;;;6.95;2.70;;;23.40;29.80;;;;;;4988698;28;44842;-83
2024/01/25 09:32:34;;;;;;;8.33;3.20;;;23.40;29.80;;;;;;4976239;28;45781;-82
2024/01/25 09:35:00;;;;;;;7.07;3.13;;;23.40;29.80;;;;;;4978484;28;45876;-82
2024/01/25 09:37:26;;;;;;;8.82;3.13;;;23.40;29.80;;;;;;5004214;28;44907;-83
2024/01/25 09:39:52;;;;;;;7.60;3.00;;;23.40;29.80;;;;;;4990688;28;44976;-82
2024/01/25 09:42:18;;;;;;;7.70;3.10;;;23.40;29.80;;;;;;5004484;28;45728;-84
2024/01/25 09:44:44;;;;;;;8.07;2.97;;;23.40;29.80;;;;;;4969234;28;46200;-82
2024/01/25 09:47:10;;;;;;;7.70;3.17;;;23.40;29.80;;;;;;4982136;28;45449;-82
2024/01/25 09:49:36;;;;;;;8.07;2.88;;;23.40;29.80;;;;;;4988055;28;45083;-82
2024/01/25 09:52:03;;;;;;;8.80;3.20;;;23.40;29.80;;;;;;4995256;28;45108;-82
2024/01/25 09:54:32;;;;;;;7.63;3.22;;;23.40;29.80;;;;;;4993480;28;45362;-82
2024/01/25 09:57:00;;;;;;;8.05;2.90;;;23.30;29.80;;;;;;4987281;28;45453;-82
2024/01/25 09:59:26;;;;;;;7.53;3.08;;;23.30;29.80;;;;;;4994079;28;45408;-82
2024/01/25 10:01:52;;;;;;;7.57;3.22;;;23.40;29.90;;;;;;4990787;28;45051;-82
2024/01/25 10:04:21;;;;;;;7.43;2.63;;;23.30;29.80;;;;;;4976524;28;46348;-83
2024/01/25 10:06:47;;;;;;;6.50;2.72;;;23.30;29.90;;;;;;4989054;28;45169;-82
2024/01/25 10:09:14;;;;;;;8.60;2.97;;;23.30;29.80;;;;;;4974486;28;45292;-82
2024/01/25 10:11:40;;;;;;;6.43;2.80;;;23.30;29.90;;;;;;5003139;28;44741;-82
2024/01/25 10:14:08;;;;;;;7.38;2.95;;;23.30;29.90;;;;;;4972849;28;45676;-85
2024/01/25 10:16:33;;;;;;;7.72;2.83;;;23.30;29.80;;;;;;4970405;28;44997;-85
2024/01/25 10:18:59;;;;;;;7.83;2.97;;;23.30;29.90;;;;;;5005479;28;44879;-83
2024/01/25 10:21:27;;;;;;;6.70;2.60;;;23.30;30.30;;;;;;4956510;28;44987;-83
2024/01/25 10:23:54;;;;;;;7.57;3.00;;;23.30;29.90;;;;;;5005012;28;45640;-83
2024/01/25 10:26:20;;;;;;;7.15;3.22;;;23.30;29.90;;;;;;4973096;28;44966;-83
2024/01/25 10:29:14;;;;;;;6.47;2.70;;;23.30;29.90;;;;;;4990062;28;45041;-84
2024/01/25 10:31:41;;;;;;;6.50;2.92;;;23.30;29.90;;;;;;4988543;28;44955;-83
2024/01/25 10:34:09;;;;;;;6.55;2.75;;;23.20;29.80;;;;;;4990109;28;45511;-83
2024/01/25 10:36:34;;;;;;;6.35;2.58;;;23.30;29.90;;;;;;4970180;28;45029;-83
2024/01/25 10:39:01;;;;;;;6.90;2.63;;;23.30;29.90;;;;;;4974883;28;44861;-87
2024/01/25 10:41:27;;;;;;;8.15;3.08;;;23.30;29.90;;;;;;5001666;28;45143;-85
2024/01/25 10:43:53;;;;;;;6.00;2.80;;;23.30;29.90;;;;;;4986386;28;46164;-83
2024/01/25 10:46:19;;;;;;;7.40;2.73;;;23.30;29.90;;;;;;5000464;28;44952;-83
2024/01/25 10:48:44;;;;;;;6.30;2.63;;;23.30;29.90;;;;;;4977768;28;45435;-83
2024/01/25 10:51:13;;;;;;;7.20;2.95;;;23.30;29.90;;;;;;4988702;28;45182;-82
2024/01/25 10:53:39;;;;;;;7.47;2.60;;;23.30;30.00;;;;;;5013800;28;47237;-81
2024/01/25 10:56:05;;;;;;;6.97;2.63;;;23.30;30.00;;;;;;4980309;28;45086;-82
2024/01/25 10:58:32;;;;;;;8.20;2.88;;;23.30;30.40;;;;;;4986203;28;45038;-82
2024/01/25 11:01:00;;;;;;;7.13;2.83;;;23.30;29.90;;;;;;4954336;28;45005;-82
2024/01/25 11:03:28;;;;;;;8.27;2.90;;;23.30;30.00;;;;;;4977728;28;45620;-82
2024/01/25 11:06:29;;;;;;;6.65;2.50;;;23.20;30.00;;;;;;4971277;28;45133;-85
2024/01/25 11:09:05;;;;;;;6.93;2.80;;;23.20;29.90;;;;;;4995724;28;45061;-84
2024/01/25 11:11:31;;;;;;;7.10;2.83;;;23.20;29.90;;;;;;4971380;28;45182;-83
2024/01/25 11:13:58;;;;;;;5.75;2.70;;;23.20;30.00;;;;;;4966455;28;46037;-83
2024/01/25 11:16:31;;;;;;;6.78;2.60;;;23.30;30.00;;;;;;4987453;28;45224;-83
2024/01/25 11:19:04;;;;;;;6.80;2.60;;;23.20;30.00;;;;;;4989851;28;45502;-83
2024/01/25 11:21:47;;;;;;;7.05;2.90;;;23.30;30.00;;;;;;4979096;28;44983;-82
2024/01/25 11:24:25;;;;;;;6.47;2.60;;;23.20;30.00;;;;;;4978114;28;46416;-83
2024/01/25 11:26:53;;;;;;;6.88;2.55;;;23.20;30.00;;;;;;4999646;28;45240;-82
2024/01/25 11:29:20;;;;;;;7.20;2.67;;;23.20;30.00;;;;;;4969554;28;44978;-83
2024/01/25 11:31:46;;;;;;;5.27;2.40;;;23.20;30.00;;;;;;4975057;28;45389;-82
2024/01/25 11:34:12;;;;;;;6.82;2.70;;;23.20;30.00;;;;;;4979291;28;46839;-82
2024/01/25 11:36:39;;;;;;;6.78;2.55;;;23.20;30.00;;;;;;4983443;28;45087;-83
2024/01/25 11:39:06;;;;;;;6.47;2.50;;;23.20;30.00;;;;;;4995876;28;45510;-84
2024/01/25 11:41:32;;;;;;;5.63;2.13;;;23.20;30.00;;;;;;4985001;28;44990;-83
2024/01/25 11:43:58;;;;;;;5.87;2.50;;;23.20;30.00;;;;;;5003804;28;46541;-82
2024/01/25 11:46:24;;;;;;;5.45;2.22;;;23.20;30.00;;;;;;4980301;28;45646;-81
2024/01/25 11:48:49;;;;;;;5.23;2.43;;;23.20;30.00;;;;;;5007092;28;45141;-83
2024/01/25 11:51:15;;;;;;;7.80;2.70;;;23.20;30.00;;;;;;4966306;28;45525;-84
2024/01/25 11:53:42;;;;;;;6.85;2.35;;;23.10;30.00;;;;;;4984562;28;46100;-82
2024/01/25 11:56:12;;;;;;;5.25;2.28;;;23.10;30.00;;;;;;5009251;28;44958;-82
2024/01/25 11:58:38;;;;;;;7.28;2.85;;;23.20;30.00;;;;;;4975504;28;45121;-82
2024/01/25 12:01:05;;;;;;;6.35;2.30;;;23.10;30.00;;;;;;4991451;28;44871;-84
2024/01/25 12:03:32;;;;;;;6.07;2.03;;;23.10;30.00;;;;;;4988075;28;45518;-83
2024/01/25 12:05:59;;;;;;;6.28;2.28;;;23.10;30.00;;;;;;4974198;28;44655;-82
2024/01/25 12:08:24;;;;;;;7.97;2.72;;;23.10;30.00;;;;;;4988469;28;45903;-83
2024/01/25 12:10:50;;;;;;;5.38;2.15;;;23.10;30.00;;;;;;4996392;28;45044;-83
2024/01/25 12:13:17;;;;;;;6.03;2.50;;;23.10;30.00;;;;;;4981728;28;66107;-83
2024/01/25 12:15:44;;;;;;;6.10;2.13;;;23.10;30.00;;;;;;4949695;28;45775;-82
2024/01/25 12:18:10;;;;;;;6.38;2.40;;;23.10;30.00;;;;;;5006134;28;45256;-85
2024/01/25 12:20:36;;;;;;;7.78;2.53;;;23.10;30.00;;;;;;4985281;28;44929;-83
2024/01/25 12:23:02;;;;;;;5.68;2.10;;;23.10;30.00;;;;;;4986365;28;46586;-84
2024/01/25 12:25:28;;;;;;;6.70;2.60;;;23.10;30.00;;;;;;4968199;28;45306;-83
2024/01/25 12:27:53;;;;;;;6.40;2.37;;;23.10;30.00;;;;;;4988165;28;45742;-82
2024/01/25 12:30:19;;;;;;;6.60;2.53;;;23.10;30.00;;;;;;4975253;28;44920;-84
2024/01/25 12:32:44;;;;;;;6.77;2.30;;;23.10;30.10;;;;;;4975275;28;46485;-83
2024/01/25 12:35:10;;;;;;;6.27;2.27;;;23.10;30.00;;;;;;4968847;28;44909;-82
2024/01/25 12:37:36;;;;;;;6.88;2.35;;;23.10;30.00;;;;;;4984049;28;44972;-83
2024/01/25 12:40:02;;;;;;;5.03;2.20;;;23.10;30.00;;;;;;4961981;28;45504;-82
2024/01/25 12:42:28;;;;;;;5.63;2.20;;;23.10;30.10;;;;;;4988727;28;47018;-82
2024/01/25 12:44:56;;;;;;;7.30;2.28;;;23.00;30.00;;;;;;4977250;28;45157;-83
2024/01/25 12:47:22;;;;;;;6.53;2.33;;;23.10;30.10;;;;;;4973662;28;44717;-83
2024/01/25 12:49:48;;;;;;;6.70;2.45;;;23.10;30.10;;;;;;4975655;28;45627;-82
2024/01/25 12:52:15;;;;;;;5.97;2.50;;;23.00;30.00;;;;;;4972923;28;46036;-83
2024/01/25 12:54:41;;;;;;;6.50;2.30;;;23.00;30.00;;;;;;4997736;28;44891;-82
2024/01/25 12:57:07;;;;;;;6.18;2.20;;;23.10;30.10;;;;;;4971209;28;45564;-82
2024/01/25 12:59:34;;;;;;;5.83;2.40;;;23.00;30.00;;;;;;4993148;28;45391;-83
2024/01/25 13:02:01;;;;;;;6.25;2.35;;;23.00;30.00;;;;;;4969460;28;46241;-82
2024/01/25 13:04:27;;;;;;;6.15;2.22;;;23.00;30.00;;;;;;4967621;28;45013;-82
2024/01/25 13:06:56;;;;;;;4.85;2.05;;;23.00;30.00;;;;;;4990174;28;45225;-83
2024/01/25 13:09:23;;;;;;;5.57;2.50;;;23.00;30.20;;;;;;4981601;28;44729;-83
2024/01/25 13:11:48;;;;;;;5.57;2.40;;;23.00;30.10;;;;;;4991946;28;46469;-82
2024/01/25 13:14:14;;;;;;;6.20;2.20;;;23.10;30.10;;;;;;4996257;28;45089;-82
2024/01/25 13:16:41;;;;;;;7.05;2.45;;;23.00;30.10;;;;;;4974171;28;44998;-82
2024/01/25 13:19:07;;;;;;;6.38;2.53;;;23.00;30.10;;;;;;5008694;28;45224;-82
2024/01/25 13:21:32;;;;;;;4.35;2.13;;;23.00;30.10;;;;;;4987981;28;46407;-83
2024/01/25 13:24:01;;;;;;;5.30;2.07;;;23.00;30.10;;;;;;4968506;28;45003;-83
2024/01/25 13:26:27;;;;;;;5.05;2.17;;;23.00;30.10;;;;;;4968989;28;45204;-82
2024/01/25 13:28:53;;;;;;;5.68;2.40;;;23.00;30.10;;;;;;4994546;28;45873;-83
2024/01/25 13:31:19;;;;;;;5.95;2.30;;;23.00;30.10;;;;;;4984994;28;45275;-82
2024/01/25 13:33:46;;;;;;;5.47;2.27;;;23.00;30.10;;;;;;4962144;28;45406;-82
2024/01/25 13:36:14;;;;;;;5.00;2.10;;;23.00;30.10;;;;;;5006365;28;45092;-82
2024/01/25 13:38:40;;;;;;;5.60;2.28;;;23.00;30.10;;;;;;5020057;28;45074;-83
2024/01/25 13:41:05;;;;;;;5.72;2.35;;;23.00;30.10;;;;;;4966188;28;46284;-82
2024/01/25 13:43:32;;;;;;;4.93;2.25;;;22.90;30.10;;;;;;5013414;28;45027;-82
2024/01/25 13:45:58;;;;;;;5.10;2.08;;;22.90;30.10;;;;;;4950750;28;45267;-82
2024/01/25 13:48:25;;;;;;;5.63;2.10;;;23.00;30.20;;;;;;4992490;28;44979;-82
2024/01/25 13:50:50;;;;;;;4.78;2.38;;;23.00;30.20;;;;;;5006359;28;45626;-83
2024/01/25 13:53:17;;;;;;;6.10;2.43;;;22.90;30.20;;;;;;4996343;28;44778;-83
2024/01/25 13:55:43;;;;;;;6.13;2.10;;;23.00;30.30;;;;;;5002307;28;44772;-82
2024/01/25 13:58:08;;;;;;;5.20;2.25;;;23.00;30.20;;;;;;4994658;28;45624;-84
2024/01/25 14:00:34;;;;;;;5.38;2.22;;;22.90;30.20;;;;;;4983754;28;46277;-83
2024/01/25 14:03:00;;;;;;;6.47;2.40;;;22.90;30.20;;;;;;4968176;28;44915;-83
2024/01/25 14:05:26;;;;;;;5.90;2.63;;;22.90;30.20;;;;;;4986773;28;45002;-83
2024/01/25 14:07:51;;;;;;;5.60;2.35;;;22.90;30.20;;;;;;4980383;28;45117;-82
2024/01/25 14:10:19;;;;;;;6.23;2.23;;;22.90;30.20;;;;;;4981816;28;45356;-82
2024/01/25 14:12:46;;;;;;;5.95;2.40;;;22.90;30.20;;;;;;5010556;28;45100;-82
2024/01/25 14:15:11;;;;;;;6.10;2.00;;;22.90;30.20;;;;;;4991063;28;44935;-82
2024/01/25 14:17:38;;;;;;;5.60;2.13;;;22.80;30.20;;;;;;4962559;28;45015;-82
2024/01/25 14:20:06;;;;;;;6.00;2.20;;;22.90;30.30;;;;;;4973887;28;46414;-87
2024/01/25 14:22:33;;;;;;;8.40;2.60;;;22.80;30.20;;;;;;4991135;28;44790;-82
2024/01/25 14:24:59;;;;;;;6.93;2.57;;;22.80;30.20;;;;;;5022493;28;45463;-83
2024/01/25 14:27:25;;;;;;;8.07;2.63;;;22.80;30.20;;;;;;5007353;28;45568;-83
2024/01/25 14:29:51;;;;;;;5.73;2.13;;;22.90;30.30;;;;;;4975345;28;47437;-82
2024/01/25 14:32:19;;;;;;;8.52;2.47;;;22.80;30.20;;;;;;5000361;28;45152;-82
2024/01/25 14:34:45;;;;;;;9.33;2.30;;;22.80;30.20;;;;;;4994188;28;45327;-82
2024/01/25 14:37:11;;;;;;;6.07;2.33;;;22.80;30.30;;;;;;4989282;28;45439;-82
2024/01/25 14:39:37;;;;;;;7.05;2.40;;;22.80;30.20;;;;;;4961617;28;45565;-82
2024/01/25 14:42:04;;;;;;;7.10;2.22;;;22.80;30.30;;;;;;4973014;28;45133;-83
2024/01/25 14:44:31;;;;;;;6.28;2.38;;;22.80;30.30;;;;;;5003452;28;45642;-82
2024/01/25 14:46:59;;;;;;;6.80;2.40;;;22.80;30.30;;;;;;4981685;28;44930;-82
2024/01/25 14:49:25;;;;;;;11.07;2.55;;;22.80;30.30;;;;;;5006396;28;45486;-82
2024/01/25 14:51:51;;;;;;;7.53;2.28;;;22.80;30.30;;;;;;4975524;28;45527;-83
2024/01/25 14:54:17;;;;;;;8.53;2.60;;;22.80;30.30;;;;;;4991074;28;45258;-83
2024/01/25 14:56:43;;;;;;;7.47;2.30;;;22.80;30.30;;;;;;5006036;28;44845;-82
2024/01/25 14:59:10;;;;;;;8.33;2.50;;;22.80;30.30;;;;;;4977142;28;45822;-82
2024/01/25 15:01:36;;;;;;;8.05;2.63;;;22.80;30.30;;;;;;5003624;28;45775;-82
2024/01/25 15:04:02;;;;;;;6.20;2.20;;;22.70;30.30;;;;;;5010890;28;44976;-82
2024/01/25 15:06:28;;;;;;;8.88;2.40;;;22.70;30.30;;;;;;4987948;28;45359;-83
2024/01/25 15:08:54;;;;;;;6.95;2.30;;;22.80;30.40;;;;;;4976136;28;45516;-83
2024/01/25 15:11:20;;;;;;;6.47;2.42;;;22.80;30.40;;;;;;4990369;28;45571;-83
2024/01/25 15:13:48;;;;;;;7.03;2.45;;;22.70;30.30;;;;;;5023742;28;44736;-82
2024/01/25 15:16:14;;;;;;;8.43;2.60;;;22.80;30.40;;;;;;4970789;28;45492;-82
2024/01/25 15:18:40;;;;;;;8.77;2.33;;;22.80;30.40;;;;;;4981025;28;45555;-82
2024/01/25 15:21:06;;;;;;;7.47;2.58;;;22.70;30.30;;;;;;4986888;28;44927;-82
2024/01/25 15:23:32;;;;;;;5.95;2.30;;;22.80;30.40;;;;;;4975324;28;45106;-82
2024/01/25 15:25:58;;;;;;;7.00;2.40;;;22.70;30.40;;;;;;5001377;28;45083;-84
2024/01/25 15:28:24;;;;;;;7.80;2.80;;;22.80;30.40;;;;;;4976543;28;45989;-82
2024/01/25 15:30:49;;;;;;;8.20;2.97;;;22.70;30.40;;;;;;4974147;28;44963;-82
2024/01/25 15:33:15;;;;;;;7.97;3.23;;;22.70;30.40;;;;;;5012009;28;45700;-83
2024/01/25 15:35:41;;;;;;;7.70;3.28;;;22.70;30.40;;;;;;4991182;28;45635;-82
2024/01/25 15:38:07;;;;;;;5.83;2.97;;;22.70;30.40;;;;;;5007464;28;45494;-83
2024/01/25 15:40:33;;;;;;;9.15;3.60;;;22.70;31.00;;;;;;4973121;28;45378;-85
2024/01/25 15:42:59;;;;;;;9.88;4.10;;;22.70;30.40;;;;;;4977605;28;44972;-83
2024/01/25 15:45:25;;;;;;;8.00;3.45;;;22.70;30.40;;;;;;4972136;28;45311;-82
2024/01/25 15:47:56;;;;;;;8.77;3.30;;;22.70;30.40;;;;;;5010237;28;46064;-82
2024/01/25 15:50:21;;;;;;;8.15;3.70;;;22.70;30.40;;;;;;4987181;28;45472;-82
2024/01/25 15:52:47;;;;;;;7.63;3.60;;;22.60;30.30;;;;;;4966039;28;44677;-82
2024/01/25 15:55:13;;;;;;;8.87;3.40;;;22.70;30.40;;;;;;4987343;28;44866;-84
2024/01/25 15:57:39;;;;;;;10.17;3.90;;;22.70;30.30;;;;;;5005828;28;46381;-83
2024/01/25 16:00:07;;;;;;;7.90;3.70;;;22.70;30.30;;;;;;4996728;28;45284;-85
2024/01/25 16:02:33;;;;;;;9.52;3.67;;;22.70;30.30;;;;;;4992093;28;45559;-82
2024/01/25 16:04:59;;;;;;;8.65;3.65;;;22.60;30.30;;;;;;4990911;28;45073;-82
2024/01/25 16:07:25;;;;;;;8.43;3.70;;;22.70;30.30;;;;;;5006996;28;45462;-84
2024/01/25 16:09:52;;;;;;;9.73;4.20;;;22.70;30.50;;;;;;5018401;28;44627;-84
2024/01/25 16:12:18;;;;;;;9.10;3.77;;;22.70;30.30;;;;;;5008093;28;45276;-83
2024/01/25 16:14:44;;;;;;;9.07;3.85;;;22.70;30.30;;;;;;4964477;28;44834;-83
2024/01/25 16:17:14;;;;;;;10.63;4.55;;;22.80;30.30;;;;;;4989452;28;46606;-83
2024/01/25 16:19:40;;;;;;;10.68;4.60;;;22.80;30.30;;;;;;4991871;28;45107;-83
2024/01/25 16:22:06;;;;;;;9.30;4.20;;;22.80;30.30;;;;;;5001707;28;45612;-83
2024/01/25 16:24:32;;;;;;;8.98;4.22;;;22.70;30.30;;;;;;5007814;28;44705;-82
2024/01/25 16:26:58;;;;;;;8.90;3.92;;;22.80;30.20;;;;;;4992243;28;47118;-82
2024/01/25 16:29:23;;;;;;;9.40;3.75;;;22.80;30.20;;;;;;4990643;28;44914;-82
2024/01/25 16:31:49;;;;;;;10.13;4.18;;;22.80;30.20;;;;;;4953696;28;44968;-82
2024/01/25 16:34:15;;;;;;;10.00;4.32;;;22.80;30.20;;;;;;4983285;28;45175;-84
2024/01/25 16:36:40;;;;;;;9.88;4.13;;;22.80;30.10;;;;;;5008363;28;46459;-83
2024/01/25 16:39:06;;;;;;;8.77;4.07;;;22.80;30.10;;;;;;4995107;28;45229;-83
2024/01/25 16:41:32;;;;;;;10.63;4.20;;;22.80;30.10;;;;;;4990839;28;45703;-83